createdAt,value
2023-03-19T00:00:45.239Z,1.30
2023-03-19T00:03:11.974Z,3.08
2023-03-19T00:05:38.823Z,1.67
2023-03-19T00:08:06.407Z,2.47
2023-03-19T00:10:37.880Z,2.17
2023-03-19T00:13:04.613Z,1.90
2023-03-19T00:15:31.839Z,1.30
2023-03-19T00:17:58.793Z,1.85
2023-03-19T00:20:25.594Z,4.97
2023-03-19T00:22:52.362Z,4.03
2023-03-19T00:25:19.062Z,2.15
2023-03-19T00:27:46.255Z,2.17
2023-03-19T00:30:14.926Z,3.78
2023-03-19T00:32:42.148Z,2.15
2023-03-19T00:35:09.463Z,3.22
2023-03-19T00:37:37.311Z,5.13
2023-03-19T00:40:05.482Z,2.67
2023-03-19T00:42:32.537Z,2.50
2023-03-19T00:44:59.434Z,3.75
2023-03-19T00:47:27.664Z,2.25
2023-03-19T00:49:54.534Z,4.28
2023-03-19T00:52:21.441Z,2.42
2023-03-19T00:54:48.264Z,3.72
2023-03-19T00:57:15.048Z,2.72
2023-03-19T00:59:41.819Z,2.75
2023-03-19T01:02:08.559Z,2.78
2023-03-19T01:04:35.444Z,3.38
2023-03-19T01:07:02.375Z,2.67
2023-03-19T01:09:29.234Z,2.53
2023-03-19T01:11:56.267Z,2.45
2023-03-19T01:14:23.013Z,4.35
2023-03-19T01:16:49.823Z,2.38
2023-03-19T01:19:16.708Z,2.65
2023-03-19T01:21:46.239Z,3.72
2023-03-19T01:24:13.424Z,3.92
2023-03-19T01:26:40.806Z,3.45
2023-03-19T01:29:08.062Z,3.40
2023-03-19T01:31:37.134Z,3.65
2023-03-19T01:34:04.152Z,3.47
2023-03-19T01:36:31.399Z,3.42
2023-03-19T01:38:58.166Z,4.55
2023-03-19T01:41:25.007Z,3.17
2023-03-19T01:43:51.819Z,3.28
2023-03-19T01:46:36.920Z,8.20
2023-03-19T01:49:09.145Z,4.07
2023-03-19T01:51:43.085Z,3.72
2023-03-19T01:54:15.870Z,4.68
2023-03-19T01:56:46.617Z,5.28
2023-03-19T01:59:22.089Z,3.55
2023-03-19T02:02:26.877Z,4.13
2023-03-19T02:05:09.367Z,4.97
2023-03-19T02:07:43.351Z,4.10
2023-03-19T02:10:16.879Z,2.90
2023-03-19T02:12:43.606Z,4.28
2023-03-19T02:15:11.004Z,4.60
2023-03-19T02:17:38.578Z,4.82
2023-03-19T02:20:49.713Z,3.88
2023-03-19T02:23:47.760Z,6.45
2023-03-19T02:26:22.198Z,4.35
2023-03-19T02:28:52.023Z,6.28
2023-03-19T02:31:21.074Z,6.28
2023-03-19T02:34:13.821Z,6.22
2023-03-19T02:36:54.452Z,5.22
2023-03-19T02:39:34.471Z,4.85
2023-03-19T02:42:02.269Z,3.97
2023-03-19T02:44:30.202Z,4.25
2023-03-19T02:46:57.066Z,4.57
2023-03-19T02:49:24.605Z,4.35
2023-03-19T02:51:51.738Z,6.30
2023-03-19T02:54:18.553Z,5.80
2023-03-19T02:56:47.874Z,5.60
2023-03-19T02:59:15.460Z,5.40
2023-03-19T03:01:42.352Z,5.50
2023-03-19T03:04:09.197Z,5.75
2023-03-19T03:06:36.240Z,6.20
2023-03-19T03:09:03.983Z,6.82
2023-03-19T03:11:31.057Z,9.48
2023-03-19T03:13:57.924Z,7.28
2023-03-19T03:16:25.905Z,7.47
2023-03-19T03:18:52.765Z,6.45
2023-03-19T03:21:21.396Z,8.05
2023-03-19T03:23:48.637Z,7.63
2023-03-19T03:26:15.823Z,7.82
2023-03-19T03:28:43.339Z,8.45
2023-03-19T03:31:10.567Z,9.20
2023-03-19T03:33:38.731Z,9.37
2023-03-19T03:36:06.038Z,8.40
2023-03-19T03:38:33.538Z,9.05
2023-03-19T03:41:00.279Z,8.23
2023-03-19T03:43:27.344Z,7.72
2023-03-19T03:45:54.475Z,7.85
2023-03-19T03:48:21.853Z,8.45
2023-03-19T03:50:48.875Z,7.63
2023-03-19T03:53:16.006Z,7.53
2023-03-19T03:55:43.030Z,8.98
2023-03-19T03:58:09.846Z,7.97
2023-03-19T04:00:36.884Z,7.55
2023-03-19T04:03:04.030Z,8.98
2023-03-19T04:05:31.007Z,9.05
2023-03-19T04:07:58.827Z,9.45
2023-03-19T04:10:25.903Z,7.70
2023-03-19T04:12:52.607Z,6.85
2023-03-19T04:15:20.234Z,7.10
2023-03-19T04:17:47.280Z,8.93
2023-03-19T04:20:18.484Z,8.02
2023-03-19T04:22:45.967Z,7.00
2023-03-19T04:25:12.789Z,9.30
2023-03-19T04:27:39.541Z,9.40
2023-03-19T04:30:06.778Z,6.67
2023-03-19T04:32:35.381Z,6.20
2023-03-19T04:35:03.041Z,7.57
2023-03-19T04:37:30.778Z,7.83
2023-03-19T04:39:58.025Z,6.87
2023-03-19T04:42:25.005Z,8.70
2023-03-19T04:44:52.435Z,9.53
2023-03-19T04:47:19.366Z,8.47
2023-03-19T04:49:47.315Z,7.67
2023-03-19T04:52:14.097Z,8.00
2023-03-19T04:54:40.908Z,7.70
2023-03-19T04:57:07.828Z,9.23
2023-03-19T04:59:34.563Z,7.27
2023-03-19T05:02:01.377Z,8.47
2023-03-19T05:04:28.176Z,8.90
2023-03-19T05:06:54.910Z,8.70
2023-03-19T05:09:21.693Z,8.53
2023-03-19T05:11:48.630Z,9.23
2023-03-19T05:14:16.627Z,8.90
2023-03-19T05:16:43.389Z,10.30
2023-03-19T05:19:10.406Z,9.73
2023-03-19T05:21:38.065Z,8.07
2023-03-19T05:24:05.186Z,10.17
2023-03-19T05:26:32.235Z,9.20
2023-03-19T05:28:59.228Z,11.67
2023-03-19T05:31:26.060Z,10.60
2023-03-19T05:33:52.762Z,14.87
2023-03-19T05:36:19.962Z,12.43
2023-03-19T05:38:46.706Z,18.17
2023-03-19T05:41:13.421Z,18.77
2023-03-19T05:43:40.354Z,19.60
2023-03-19T05:46:07.807Z,23.33
2023-03-19T05:48:37.720Z,23.60
2023-03-19T05:51:07.515Z,23.77
2023-03-19T05:53:34.657Z,22.67
2023-03-19T05:56:01.442Z,25.40
2023-03-19T05:58:30.902Z,22.97
2023-03-19T06:00:58.008Z,19.57
2023-03-19T06:03:26.524Z,17.63
2023-03-19T06:05:53.929Z,16.97
2023-03-19T06:08:21.711Z,17.70
2023-03-19T06:10:48.651Z,19.07
2023-03-19T06:13:15.524Z,18.40
2023-03-19T06:15:42.371Z,19.07
2023-03-19T06:18:09.234Z,19.00
2023-03-19T06:20:36.545Z,16.13
2023-03-19T06:23:03.610Z,13.73
2023-03-19T06:25:30.327Z,15.43
2023-03-19T06:27:58.164Z,14.67
2023-03-19T06:30:25.580Z,17.17
2023-03-19T06:32:53.716Z,15.03
2023-03-19T06:35:20.973Z,16.73
2023-03-19T06:37:48.947Z,17.57
2023-03-19T06:40:15.883Z,17.57
2023-03-19T06:42:47.388Z,16.87
2023-03-19T06:45:18.658Z,17.97
2023-03-19T06:47:47.588Z,18.30
2023-03-19T06:50:17.095Z,17.60
2023-03-19T06:52:44.685Z,19.13
2023-03-19T06:55:12.564Z,18.40
2023-03-19T06:57:39.654Z,17.73
2023-03-19T07:00:09.512Z,19.77
2023-03-19T07:02:36.616Z,16.57
2023-03-19T07:05:04.061Z,20.20
2023-03-19T07:07:31.554Z,16.10
2023-03-19T07:09:58.317Z,16.00
2023-03-19T07:12:27.809Z,19.43
2023-03-19T07:14:58.756Z,17.63
2023-03-19T07:17:26.080Z,18.33
2023-03-19T07:19:52.902Z,18.83
2023-03-19T07:22:19.628Z,21.83
2023-03-19T07:24:46.361Z,21.50
2023-03-19T07:27:13.106Z,21.80
2023-03-19T07:29:39.867Z,19.47
2023-03-19T07:32:10.723Z,21.07
2023-03-19T07:34:37.502Z,17.77
2023-03-19T07:37:04.330Z,19.20
2023-03-19T07:39:31.136Z,18.13
2023-03-19T07:41:57.932Z,19.07
2023-03-19T07:44:24.768Z,19.10
2023-03-19T07:46:51.693Z,22.33
2023-03-19T07:49:18.443Z,21.63
2023-03-19T07:51:45.156Z,22.07
2023-03-19T07:54:11.980Z,22.00
2023-03-19T07:56:38.779Z,21.50
2023-03-19T07:59:09.073Z,19.37
2023-03-19T08:01:36.919Z,20.13
2023-03-19T08:04:04.019Z,25.40
2023-03-19T08:06:38.465Z,24.73
2023-03-19T08:09:05.508Z,21.10
2023-03-19T08:11:32.397Z,22.97
2023-03-19T08:13:59.219Z,26.40
2023-03-19T08:16:26.239Z,23.57
2023-03-19T08:18:53.281Z,23.10
2023-03-19T08:21:20.056Z,22.30
2023-03-19T08:23:46.815Z,21.60
2023-03-19T08:26:13.557Z,21.57
2023-03-19T08:28:40.303Z,20.90
2023-03-19T08:31:14.236Z,21.90
2023-03-19T08:33:41.699Z,21.70
2023-03-19T08:36:12.929Z,20.97
2023-03-19T08:38:40.515Z,21.37
2023-03-19T08:41:08.041Z,18.50
2023-03-19T08:43:38.415Z,15.67
2023-03-19T08:46:06.569Z,16.23
2023-03-19T08:48:33.594Z,15.83
2023-03-19T08:51:03.261Z,16.13
2023-03-19T08:53:31.996Z,14.70
2023-03-19T08:56:02.729Z,15.07
2023-03-19T08:58:30.239Z,16.23
2023-03-19T09:01:10.701Z,16.73
2023-03-19T09:03:39.188Z,17.13
2023-03-19T09:06:09.744Z,17.47
2023-03-19T09:08:37.893Z,18.33
2023-03-19T09:11:05.800Z,17.63
2023-03-19T09:13:34.431Z,19.27
2023-03-19T09:16:01.445Z,18.10
2023-03-19T09:18:28.830Z,17.20
2023-03-19T09:20:55.817Z,18.00
2023-03-19T09:23:23.385Z,15.53
2023-03-19T09:25:51.058Z,16.17
2023-03-19T09:28:20.340Z,22.20
2023-03-19T09:30:49.267Z,19.73
2023-03-19T09:33:19.358Z,19.53
2023-03-19T09:35:53.011Z,18.58
2023-03-19T09:38:22.157Z,18.95
2023-03-19T09:41:11.293Z,18.73
2023-03-19T09:44:03.971Z,19.10
2023-03-19T09:46:49.423Z,19.93
2023-03-19T09:49:28.300Z,18.60
2023-03-19T09:52:19.253Z,20.07
2023-03-19T09:54:52.321Z,17.90
2023-03-19T09:57:19.876Z,19.63
2023-03-19T10:00:29.965Z,18.77
2023-03-19T10:03:25.416Z,19.13
2023-03-19T10:06:36.676Z,24.20
2023-03-19T10:09:12.331Z,21.65
2023-03-19T10:11:58.554Z,19.17
2023-03-19T10:14:52.493Z,20.03
2023-03-19T10:17:33.887Z,20.33
2023-03-19T10:20:55.338Z,20.60
2023-03-19T10:23:35.447Z,21.87
2023-03-19T10:26:13.541Z,19.80
2023-03-19T10:28:45.281Z,18.73
2023-03-19T10:31:26.795Z,17.90
2023-03-19T10:34:14.182Z,17.10
2023-03-19T10:36:40.991Z,17.27
2023-03-19T10:39:10.022Z,19.52
2023-03-19T10:42:09.215Z,16.98
2023-03-19T10:44:48.536Z,18.38
2023-03-19T10:47:19.134Z,22.25
2023-03-19T10:49:46.342Z,16.15
2023-03-19T10:52:33.019Z,15.65
2023-03-19T10:55:23.660Z,15.30
2023-03-19T10:58:04.251Z,17.23
2023-03-19T11:00:35.295Z,18.70
2023-03-19T11:03:05.378Z,14.97
2023-03-19T11:05:35.342Z,16.03
2023-03-19T11:08:08.399Z,16.33
2023-03-19T11:10:36.381Z,17.13
2023-03-19T11:13:23.240Z,17.08
2023-03-19T11:15:52.922Z,16.02
2023-03-19T11:18:39.045Z,16.73
2023-03-19T11:21:33.001Z,16.85
2023-03-19T11:24:03.193Z,15.93
2023-03-19T11:26:30.958Z,16.30
2023-03-19T11:29:04.735Z,16.15
2023-03-19T11:31:44.550Z,18.23
2023-03-19T11:34:32.165Z,17.48
2023-03-19T11:37:43.718Z,15.60
2023-03-19T11:40:34.373Z,15.00
2023-03-19T11:43:38.676Z,18.15
2023-03-19T11:46:29.355Z,16.20
2023-03-19T11:49:20.770Z,16.50
2023-03-19T11:51:51.545Z,16.60
2023-03-19T11:54:46.565Z,18.70
2023-03-19T11:57:25.520Z,18.00
2023-03-19T12:00:27.835Z,20.95
2023-03-19T12:03:19.550Z,19.75
2023-03-19T12:06:08.445Z,19.90
2023-03-19T12:08:49.727Z,18.67
2023-03-19T12:11:51.398Z,20.38
2023-03-19T12:15:00.778Z,23.27
2023-03-19T12:17:59.443Z,17.83
2023-03-19T12:21:07.944Z,19.23
2023-03-19T12:23:52.507Z,19.15
2023-03-19T12:26:28.132Z,19.23
2023-03-19T12:29:25.540Z,23.23
2023-03-19T12:32:24.837Z,20.33
2023-03-19T12:35:34.323Z,20.13
2023-03-19T12:38:28.784Z,21.85
2023-03-19T12:41:24.626Z,24.85
2023-03-19T12:44:10.387Z,20.98
2023-03-19T12:46:53.478Z,24.00
2023-03-19T12:49:36.544Z,23.92
2023-03-19T12:52:38.804Z,25.70
2023-03-19T12:55:20.026Z,26.63
2023-03-19T12:58:06.594Z,26.65
2023-03-19T13:00:57.655Z,72.68
2023-03-19T13:04:05.861Z,35.85
2023-03-19T13:07:12.153Z,28.10
2023-03-19T13:10:00.732Z,27.35
2023-03-19T13:12:35.731Z,22.15
2023-03-19T13:15:39.421Z,21.10
2023-03-19T13:18:43.471Z,21.63
2023-03-19T13:21:30.041Z,18.80
2023-03-19T13:24:25.954Z,21.20
2023-03-19T13:26:56.158Z,22.02
2023-03-19T13:29:32.501Z,22.33
2023-03-19T13:32:27.181Z,14.93
2023-03-19T13:35:37.961Z,15.00
2023-03-19T13:38:17.422Z,15.38
2023-03-19T13:40:53.485Z,16.23
2023-03-19T13:43:29.513Z,18.15
2023-03-19T13:46:17.519Z,19.02
2023-03-19T13:48:47.707Z,18.55
2023-03-19T13:51:21.185Z,17.45
2023-03-19T13:54:38.886Z,16.30
2023-03-19T13:57:22.573Z,14.35
2023-03-19T13:59:50.875Z,15.68
2023-03-19T14:02:49.346Z,19.52
2023-03-19T14:05:20.657Z,16.48
2023-03-19T14:07:55.227Z,17.23
2023-03-19T14:10:31.185Z,23.45
2023-03-19T14:13:14.143Z,42.20
2023-03-19T14:15:50.180Z,22.02
2023-03-19T14:18:22.324Z,17.65
2023-03-19T14:21:12.468Z,16.42
2023-03-19T14:23:52.708Z,15.35
2023-03-19T14:26:28.881Z,12.90
2023-03-19T14:29:05.865Z,13.75
2023-03-19T14:31:49.506Z,13.38
2023-03-19T14:34:34.370Z,13.52
2023-03-19T14:37:23.271Z,13.23
2023-03-19T14:40:13.177Z,14.00
2023-03-19T14:43:04.357Z,20.08
2023-03-19T14:46:01.622Z,13.73
2023-03-19T14:48:50.258Z,13.20
2023-03-19T14:51:30.434Z,15.18
2023-03-19T14:54:06.518Z,11.20
2023-03-19T14:56:36.871Z,13.20
2023-03-19T14:59:06.414Z,14.82
2023-03-19T15:01:41.100Z,11.82
2023-03-19T15:04:16.190Z,13.98
2023-03-19T15:06:53.077Z,14.73
2023-03-19T15:09:33.174Z,12.27
2023-03-19T15:12:17.971Z,12.65
2023-03-19T15:15:15.452Z,10.00
2023-03-19T15:17:47.041Z,9.50
2023-03-19T15:20:22.726Z,12.55
2023-03-19T15:23:01.511Z,13.70
2023-03-19T15:25:28.587Z,11.93
2023-03-19T15:28:14.770Z,13.55
2023-03-19T15:30:53.511Z,14.07
2023-03-19T15:33:40.188Z,11.93
2023-03-19T15:36:24.012Z,14.73
2023-03-19T15:39:05.205Z,16.98
2023-03-19T15:41:40.279Z,15.90
2023-03-19T15:44:15.891Z,17.10
2023-03-19T15:46:47.034Z,16.85
2023-03-19T15:49:29.040Z,17.83
2023-03-19T15:52:04.246Z,16.35
2023-03-19T15:54:34.607Z,20.88
2023-03-19T15:57:01.665Z,16.77
2023-03-19T15:59:31.544Z,18.35
2023-03-19T16:02:09.110Z,18.85
2023-03-19T16:05:03.571Z,21.95
2023-03-19T16:07:26.089Z,21.75
2023-03-19T16:09:53.752Z,22.73
2023-03-19T16:12:41.276Z,26.15
2023-03-19T16:15:29.791Z,26.45
2023-03-19T16:18:21.895Z,28.83
2023-03-19T16:21:06.113Z,25.27
2023-03-19T16:23:45.990Z,22.98
2023-03-19T16:26:21.669Z,22.95
2023-03-19T16:29:23.918Z,28.63
2023-03-19T16:31:56.639Z,30.17
2023-03-19T16:34:46.979Z,43.22
2023-03-19T16:37:33.092Z,72.50
2023-03-19T16:40:20.673Z,64.30
2023-03-19T16:42:52.865Z,61.65
2023-03-19T16:45:32.513Z,41.72
2023-03-19T16:48:04.970Z,27.50
2023-03-19T16:50:38.779Z,22.07
2023-03-19T16:53:19.260Z,21.23
2023-03-19T16:55:48.224Z,18.77
2023-03-19T16:58:30.394Z,18.50
2023-03-19T17:00:57.688Z,18.73
2023-03-19T17:03:30.040Z,22.02
2023-03-19T17:05:57.300Z,18.40
2023-03-19T17:08:26.174Z,21.98
2023-03-19T17:10:54.519Z,18.20
2023-03-19T17:13:29.592Z,15.80
2023-03-19T17:16:02.349Z,17.30
2023-03-19T17:18:38.175Z,17.67
2023-03-19T17:21:31.191Z,18.25
2023-03-19T17:24:08.258Z,20.90
2023-03-19T17:26:35.234Z,19.00
2023-03-19T17:29:01.971Z,20.38
2023-03-19T17:31:33.627Z,21.20
2023-03-19T17:34:10.081Z,19.27
2023-03-19T17:36:37.412Z,21.02
2023-03-19T17:39:07.084Z,24.40
2023-03-19T17:41:36.253Z,21.10
2023-03-19T17:44:06.225Z,21.13
2023-03-19T17:46:40.626Z,22.90
2023-03-19T17:49:20.692Z,20.63
2023-03-19T17:51:47.744Z,22.23
2023-03-19T17:54:14.779Z,37.13
2023-03-19T17:56:43.425Z,36.90
2023-03-19T17:59:11.074Z,36.70
2023-03-19T18:01:47.342Z,31.10
2023-03-19T18:04:20.729Z,26.08
2023-03-19T18:06:55.370Z,22.95
2023-03-19T18:09:26.873Z,22.00
2023-03-19T18:11:54.457Z,26.20
2023-03-19T18:14:21.299Z,23.80
2023-03-19T18:16:48.409Z,23.23
2023-03-19T18:19:38.890Z,23.77
2023-03-19T18:22:18.213Z,25.40
2023-03-19T18:24:45.966Z,23.92
2023-03-19T18:27:12.911Z,22.48
2023-03-19T18:29:39.629Z,26.05
2023-03-19T18:32:27.874Z,24.15
2023-03-19T18:34:54.758Z,24.08
2023-03-19T18:37:21.563Z,26.03
2023-03-19T18:39:49.922Z,27.30
2023-03-19T18:42:16.810Z,23.95
2023-03-19T18:44:43.739Z,23.73
2023-03-19T18:47:15.769Z,26.97
2023-03-19T18:49:43.423Z,22.70
2023-03-19T18:52:15.883Z,25.42
2023-03-19T18:54:45.434Z,24.47
2023-03-19T18:57:14.778Z,20.97
2023-03-19T18:59:41.963Z,25.58
2023-03-19T19:02:33.846Z,24.10
2023-03-19T19:05:01.904Z,26.97
2023-03-19T19:07:28.692Z,27.40
2023-03-19T19:09:55.780Z,29.67
2023-03-19T19:12:26.002Z,30.83
2023-03-19T19:14:52.986Z,26.77
2023-03-19T19:17:24.446Z,33.67
2023-03-19T19:19:51.356Z,36.47
2023-03-19T19:22:20.535Z,29.77
2023-03-19T19:24:48.672Z,25.97
2023-03-19T19:27:21.802Z,24.97
2023-03-19T19:29:49.852Z,24.90
2023-03-19T19:32:28.485Z,31.50
2023-03-19T19:34:55.668Z,25.10
2023-03-19T19:37:23.757Z,21.03
2023-03-19T19:39:51.171Z,25.90
2023-03-19T19:42:22.684Z,23.87
2023-03-19T19:44:58.633Z,43.93
2023-03-19T19:47:25.472Z,32.10
2023-03-19T19:49:52.260Z,24.07
2023-03-19T19:52:20.007Z,25.77
2023-03-19T19:54:47.651Z,23.27
2023-03-19T19:57:22.428Z,20.13
2023-03-19T19:59:50.929Z,21.90
2023-03-19T20:02:28.731Z,21.97
2023-03-19T20:04:57.677Z,22.40
2023-03-19T20:07:24.571Z,24.83
2023-03-19T20:09:51.386Z,20.97
2023-03-19T20:12:26.229Z,22.27
2023-03-19T20:14:53.214Z,18.00
2023-03-19T20:17:23.511Z,20.37
2023-03-19T20:19:51.361Z,20.60
2023-03-19T20:22:18.412Z,20.77
2023-03-19T20:24:48.311Z,16.27
2023-03-19T20:27:32.262Z,14.37
2023-03-19T20:29:59.556Z,14.70
2023-03-19T20:32:43.997Z,19.07
2023-03-19T20:35:23.135Z,13.83
2023-03-19T20:37:53.174Z,17.67
2023-03-19T20:40:23.183Z,15.77
2023-03-19T20:42:52.533Z,20.57
2023-03-19T20:45:28.371Z,16.73
2023-03-19T20:47:55.052Z,15.33
2023-03-19T20:50:29.814Z,15.00
2023-03-19T20:53:00.998Z,18.17
2023-03-19T20:55:34.887Z,15.83
2023-03-19T20:58:12.140Z,15.70
2023-03-19T21:00:38.945Z,12.60
2023-03-19T21:03:06.048Z,16.27
2023-03-19T21:05:38.605Z,14.90
2023-03-19T21:08:15.927Z,15.97
2023-03-19T21:10:44.270Z,11.77
2023-03-19T21:13:18.374Z,13.57
2023-03-19T21:15:46.489Z,13.17
2023-03-19T21:18:13.596Z,15.53
2023-03-19T21:20:45.309Z,11.10
2023-03-19T21:23:35.189Z,11.47
2023-03-19T21:26:17.470Z,15.00
2023-03-19T21:28:48.495Z,9.13
2023-03-19T21:31:18.954Z,10.40
2023-03-19T21:33:51.511Z,10.57
2023-03-19T21:36:18.833Z,10.17
2023-03-19T21:38:47.530Z,13.40
2023-03-19T21:41:32.544Z,11.17
2023-03-19T21:44:22.811Z,9.77
2023-03-19T21:46:49.806Z,11.57
2023-03-19T21:49:16.809Z,11.67
2023-03-19T21:51:44.477Z,12.40
2023-03-19T21:54:13.548Z,14.70
2023-03-19T21:56:43.551Z,10.07
2023-03-19T21:59:17.960Z,12.30
2023-03-19T22:01:45.175Z,13.37
2023-03-19T22:04:13.245Z,10.90
2023-03-19T22:06:40.739Z,13.90
2023-03-19T22:09:07.713Z,11.67
2023-03-19T22:11:38.338Z,9.27
2023-03-19T22:14:10.925Z,10.27
2023-03-19T22:16:38.049Z,11.07
2023-03-19T22:19:04.995Z,10.27
2023-03-19T22:21:33.991Z,6.47
2023-03-19T22:24:00.714Z,8.63
2023-03-19T22:26:39.008Z,8.57
2023-03-19T22:29:23.519Z,5.50
2023-03-19T22:31:53.104Z,7.33
2023-03-19T22:34:24.909Z,9.27
2023-03-19T22:36:52.211Z,7.63
2023-03-19T22:39:19.146Z,4.67
2023-03-19T22:41:48.616Z,7.72
2023-03-19T22:44:28.023Z,6.70
2023-03-19T22:47:00.843Z,6.67
2023-03-19T22:49:29.664Z,6.50
2023-03-19T22:51:57.576Z,4.47
2023-03-19T22:54:24.546Z,5.70
2023-03-19T22:56:51.300Z,9.23
2023-03-19T22:59:18.966Z,8.17
2023-03-19T23:01:47.450Z,11.10
2023-03-19T23:04:21.584Z,11.37
2023-03-19T23:06:49.289Z,10.87
2023-03-19T23:09:26.278Z,7.40
2023-03-19T23:11:53.658Z,9.63
2023-03-19T23:14:30.675Z,8.63
2023-03-19T23:17:03.258Z,10.63
2023-03-19T23:19:35.482Z,8.77
2023-03-19T23:22:05.968Z,7.80
2023-03-19T23:24:33.691Z,11.17
2023-03-19T23:27:02.379Z,7.23
2023-03-19T23:29:35.360Z,8.27
2023-03-19T23:32:03.314Z,9.73
2023-03-19T23:34:30.468Z,9.10
2023-03-19T23:36:57.923Z,10.93
2023-03-19T23:39:25.864Z,10.33
2023-03-19T23:41:58.104Z,10.87
2023-03-19T23:44:27.064Z,10.63
2023-03-19T23:46:53.910Z,14.87
2023-03-19T23:49:29.701Z,11.27
2023-03-19T23:51:57.492Z,12.13
2023-03-19T23:54:34.684Z,12.10
2023-03-19T23:57:12.857Z,18.57
2023-03-19T23:59:43.871Z,11.57
